createdAt,value
2018-09-15T00:00:58.764Z,16.90
2018-09-15T00:02:02.889Z,16.90
2018-09-15T00:03:07.655Z,16.90
2018-09-15T00:04:11.831Z,16.90
2018-09-15T00:05:16.242Z,16.90
2018-09-15T00:06:20.588Z,17.00
2018-09-15T00:07:25.000Z,17.00
2018-09-15T00:08:29.249Z,17.00
2018-09-15T00:09:33.579Z,17.00
2018-09-15T00:10:37.927Z,17.00
2018-09-15T00:11:42.103Z,17.00
2018-09-15T00:12:46.616Z,17.00
2018-09-15T00:13:50.978Z,17.00
2018-09-15T00:14:55.343Z,17.00
2018-09-15T00:15:59.721Z,17.00
2018-09-15T00:17:03.799Z,16.90
2018-09-15T00:18:10.303Z,17.00
2018-09-15T00:19:14.668Z,17.00
2018-09-15T00:20:18.859Z,17.00
2018-09-15T00:21:23.035Z,17.00
2018-09-15T00:22:27.258Z,17.00
2018-09-15T00:23:31.375Z,17.00
2018-09-15T00:24:35.606Z,17.00
2018-09-15T00:25:40.740Z,17.00
2018-09-15T00:26:44.999Z,17.00
2018-09-15T00:27:49.555Z,17.00
2018-09-15T00:28:53.701Z,17.00
2018-09-15T00:29:57.925Z,16.90
2018-09-15T00:31:02.151Z,17.00
2018-09-15T00:32:06.356Z,17.00
2018-09-15T00:33:10.763Z,17.00
2018-09-15T00:34:15.065Z,17.00
2018-09-15T00:35:19.184Z,17.00
2018-09-15T00:36:23.912Z,17.00
2018-09-15T00:37:28.124Z,17.00
2018-09-15T00:38:32.393Z,17.00
2018-09-15T00:39:36.481Z,17.00
2018-09-15T00:40:40.632Z,16.90
2018-09-15T00:41:45.080Z,16.90
2018-09-15T00:42:49.286Z,16.90
2018-09-15T00:43:54.330Z,16.90
2018-09-15T00:44:58.537Z,16.90
2018-09-15T00:46:02.749Z,16.90
2018-09-15T00:47:06.926Z,17.00
2018-09-15T00:48:11.052Z,16.90
2018-09-15T00:49:15.266Z,16.90
2018-09-15T00:50:19.449Z,16.90
2018-09-15T00:51:23.675Z,16.90
2018-09-15T00:52:28.127Z,17.00
2018-09-15T00:53:32.962Z,17.00
2018-09-15T00:54:37.405Z,17.00
2018-09-15T00:55:41.839Z,17.00
2018-09-15T00:56:46.184Z,17.00
2018-09-15T00:57:50.596Z,17.00
2018-09-15T00:58:55.098Z,17.00
2018-09-15T00:59:59.441Z,17.00
2018-09-15T01:01:03.741Z,17.00
2018-09-15T01:02:08.059Z,17.00
2018-09-15T01:03:12.189Z,17.00
2018-09-15T01:04:16.308Z,17.00
2018-09-15T01:05:20.540Z,17.00
2018-09-15T01:06:24.789Z,16.90
2018-09-15T01:07:29.491Z,16.90
2018-09-15T01:08:33.619Z,16.90
2018-09-15T01:09:37.696Z,16.90
2018-09-15T01:10:41.910Z,17.00
2018-09-15T01:11:46.288Z,17.00
2018-09-15T01:12:50.651Z,17.00
2018-09-15T01:13:55.198Z,16.90
2018-09-15T01:14:59.403Z,17.00
2018-09-15T01:16:03.616Z,16.90
2018-09-15T01:17:08.239Z,16.90
2018-09-15T01:18:12.469Z,16.90
2018-09-15T01:19:16.745Z,16.90
2018-09-15T01:20:21.172Z,16.90
2018-09-15T01:21:25.640Z,16.90
2018-09-15T01:22:29.938Z,16.80
2018-09-15T01:23:34.199Z,16.80
2018-09-15T01:24:38.339Z,16.80
2018-09-15T01:25:42.691Z,16.70
2018-09-15T01:26:46.889Z,16.80
2018-09-15T01:27:51.302Z,16.70
2018-09-15T01:28:56.034Z,16.70
2018-09-15T01:30:00.465Z,16.80
2018-09-15T01:31:04.730Z,16.80
2018-09-15T01:32:09.058Z,16.80
2018-09-15T01:33:13.388Z,16.80
2018-09-15T01:34:17.754Z,16.80
2018-09-15T01:35:21.983Z,16.90
2018-09-15T01:36:26.200Z,16.90
2018-09-15T01:37:30.510Z,16.90
2018-09-15T01:38:34.856Z,16.90
2018-09-15T01:39:39.094Z,16.90
2018-09-15T01:40:43.223Z,16.90
2018-09-15T01:41:47.416Z,16.80
2018-09-15T01:42:51.634Z,16.90
2018-09-15T01:43:55.838Z,16.90
2018-09-15T01:45:00.006Z,16.80
2018-09-15T01:46:04.145Z,16.80
2018-09-15T01:47:08.731Z,16.80
2018-09-15T01:48:13.349Z,16.70
2018-09-15T01:49:17.992Z,16.70
2018-09-15T01:50:22.222Z,16.70
2018-09-15T01:51:26.519Z,16.60
2018-09-15T01:52:30.819Z,16.60
2018-09-15T01:53:35.393Z,16.60
2018-09-15T01:54:39.569Z,16.50
2018-09-15T01:55:44.302Z,16.60
2018-09-15T01:56:48.366Z,16.60
2018-09-15T01:57:52.850Z,16.60
2018-09-15T01:58:57.159Z,16.60
2018-09-15T02:00:01.685Z,16.60
2018-09-15T02:01:05.965Z,16.70
2018-09-15T02:02:10.518Z,16.70
2018-09-15T02:03:14.970Z,16.70
2018-09-15T02:04:19.194Z,16.70
2018-09-15T02:05:23.365Z,16.70
2018-09-15T02:06:27.797Z,16.70
2018-09-15T02:07:31.999Z,16.70
2018-09-15T02:08:36.155Z,16.80
2018-09-15T02:09:40.745Z,16.80
2018-09-15T02:10:45.048Z,16.80
2018-09-15T02:11:49.445Z,16.80
2018-09-15T02:12:53.807Z,16.80
2018-09-15T02:13:58.090Z,16.80
2018-09-15T02:15:02.443Z,16.80
2018-09-15T02:16:06.763Z,16.80
2018-09-15T02:17:11.128Z,16.80
2018-09-15T02:18:15.326Z,16.80
2018-09-15T02:19:19.737Z,16.80
2018-09-15T02:20:24.037Z,16.80
2018-09-15T02:21:28.402Z,16.80
2018-09-15T02:22:33.029Z,16.80
2018-09-15T02:23:37.456Z,16.80
2018-09-15T02:24:41.685Z,16.90
2018-09-15T02:25:46.042Z,16.80
2018-09-15T02:26:50.225Z,16.80
2018-09-15T02:27:54.317Z,16.80
2018-09-15T02:28:58.728Z,16.80
2018-09-15T02:30:03.030Z,16.80
2018-09-15T02:31:07.603Z,16.90
2018-09-15T02:32:12.014Z,16.80
2018-09-15T02:33:16.316Z,16.80
2018-09-15T02:34:20.620Z,16.70
2018-09-15T02:35:24.989Z,16.70
2018-09-15T02:36:29.257Z,16.70
2018-09-15T02:37:33.611Z,16.70
2018-09-15T02:38:38.142Z,16.70
2018-09-15T02:39:42.464Z,16.70
2018-09-15T02:40:46.639Z,16.70
2018-09-15T02:41:50.723Z,16.70
2018-09-15T02:42:54.958Z,16.80
2018-09-15T02:43:59.602Z,16.80
2018-09-15T02:45:04.064Z,16.80
2018-09-15T02:46:08.182Z,16.80
2018-09-15T02:47:12.444Z,16.80
2018-09-15T02:48:16.686Z,16.70
2018-09-15T02:49:21.122Z,16.70
2018-09-15T02:50:25.316Z,16.70
2018-09-15T02:51:29.408Z,16.70
2018-09-15T02:52:33.823Z,16.70
2018-09-15T02:53:38.619Z,16.70
2018-09-15T02:54:42.968Z,16.60
2018-09-15T02:55:47.290Z,16.60
2018-09-15T02:56:51.550Z,16.60
2018-09-15T02:57:55.875Z,16.60
2018-09-15T02:59:00.315Z,16.60
2018-09-15T03:00:04.463Z,16.60
2018-09-15T03:01:08.962Z,16.60
2018-09-15T03:02:13.158Z,16.60
2018-09-15T03:03:17.297Z,16.60
2018-09-15T03:04:21.748Z,16.60
2018-09-15T03:05:26.038Z,16.60
2018-09-15T03:06:30.608Z,16.50
2018-09-15T03:07:35.094Z,16.50
2018-09-15T03:08:39.603Z,16.60
2018-09-15T03:09:44.328Z,16.50
2018-09-15T03:10:48.737Z,16.50
2018-09-15T03:11:52.879Z,16.50
2018-09-15T03:12:57.039Z,16.50
2018-09-15T03:14:01.283Z,16.40
2018-09-15T03:15:05.663Z,16.50
2018-09-15T03:16:09.813Z,16.40
2018-09-15T03:17:14.059Z,16.40
2018-09-15T03:18:18.306Z,16.40
2018-09-15T03:19:23.043Z,16.30
2018-09-15T03:20:27.374Z,16.30
2018-09-15T03:21:31.682Z,16.30
2018-09-15T03:22:36.355Z,16.30
2018-09-15T03:23:40.562Z,16.30
2018-09-15T03:24:44.652Z,16.20
2018-09-15T03:25:48.934Z,16.20
2018-09-15T03:26:53.291Z,16.20
2018-09-15T03:27:57.577Z,16.20
2018-09-15T03:29:01.941Z,16.20
2018-09-15T03:30:06.110Z,16.10
2018-09-15T03:31:10.516Z,16.10
2018-09-15T03:32:14.784Z,16.10
2018-09-15T03:33:18.906Z,16.10
2018-09-15T03:34:23.287Z,16.00
2018-09-15T03:35:27.394Z,16.00
2018-09-15T03:36:31.855Z,16.00
2018-09-15T03:37:36.029Z,16.00
2018-09-15T03:38:40.469Z,16.00
2018-09-15T03:39:44.713Z,16.00
2018-09-15T03:40:48.975Z,16.00
2018-09-15T03:41:53.287Z,16.00
2018-09-15T03:42:57.397Z,16.00
2018-09-15T03:44:01.445Z,16.00
2018-09-15T03:45:05.552Z,16.00
2018-09-15T03:46:09.963Z,16.00
2018-09-15T03:47:14.194Z,16.10
2018-09-15T03:48:18.331Z,16.10
2018-09-15T03:49:22.513Z,16.10
2018-09-15T03:50:26.638Z,16.00
2018-09-15T03:51:30.838Z,16.10
2018-09-15T03:52:35.428Z,16.10
2018-09-15T03:53:39.573Z,16.10
2018-09-15T03:54:43.840Z,16.10
2018-09-15T03:55:48.101Z,16.20
2018-09-15T03:56:52.560Z,16.10
2018-09-15T03:57:56.919Z,16.10
2018-09-15T03:59:01.115Z,16.10
2018-09-15T04:00:05.568Z,16.10
2018-09-15T04:01:10.013Z,16.10
2018-09-15T04:02:14.274Z,16.20
2018-09-15T04:03:18.508Z,16.10
2018-09-15T04:04:22.972Z,16.10
2018-09-15T04:05:27.150Z,16.20
2018-09-15T04:06:31.325Z,16.10
2018-09-15T04:07:35.717Z,16.10
2018-09-15T04:08:39.813Z,16.20
2018-09-15T04:09:44.338Z,16.20
2018-09-15T04:10:48.555Z,16.20
2018-09-15T04:11:52.899Z,16.20
2018-09-15T04:12:57.295Z,16.20
2018-09-15T04:14:02.216Z,16.20
2018-09-15T04:15:06.484Z,16.20
2018-09-15T04:16:10.629Z,16.20
2018-09-15T04:17:15.017Z,16.20
2018-09-15T04:18:19.566Z,16.20
2018-09-15T04:19:23.802Z,16.10
2018-09-15T04:20:27.946Z,16.10
2018-09-15T04:21:32.371Z,16.10
2018-09-15T04:22:36.637Z,16.10
2018-09-15T04:23:40.744Z,16.10
2018-09-15T04:24:44.953Z,16.10
2018-09-15T04:25:49.537Z,16.10
2018-09-15T04:26:53.990Z,16.10
2018-09-15T04:27:58.369Z,16.10
2018-09-15T04:29:02.813Z,16.10
2018-09-15T04:30:07.250Z,16.10
2018-09-15T04:31:11.528Z,16.10
2018-09-15T04:32:15.769Z,16.10
2018-09-15T04:33:20.244Z,16.10
2018-09-15T04:34:24.629Z,16.10
2018-09-15T04:35:28.773Z,16.10
2018-09-15T04:36:32.920Z,16.10
2018-09-15T04:37:37.206Z,16.10
2018-09-15T04:38:41.333Z,16.20
2018-09-15T04:39:45.685Z,16.10
2018-09-15T04:40:49.994Z,16.20
2018-09-15T04:41:54.125Z,16.20
2018-09-15T04:42:58.258Z,16.20
2018-09-15T04:44:02.376Z,16.20
2018-09-15T04:45:06.791Z,16.10
2018-09-15T04:46:11.041Z,16.20
2018-09-15T04:47:15.294Z,16.20
2018-09-15T04:48:19.713Z,16.20
2018-09-15T04:49:23.985Z,16.10
2018-09-15T04:50:28.106Z,16.10
2018-09-15T04:51:32.315Z,16.00
2018-09-15T04:52:36.874Z,16.10
2018-09-15T04:53:40.956Z,16.20
2018-09-15T04:54:45.429Z,16.20
2018-09-15T04:55:49.696Z,16.10
2018-09-15T04:56:53.983Z,16.10
2018-09-15T04:57:58.342Z,16.20
2018-09-15T04:59:02.548Z,16.20
2018-09-15T05:00:06.808Z,16.30
2018-09-15T05:01:10.952Z,16.30
2018-09-15T05:02:15.274Z,16.30
2018-09-15T05:03:19.462Z,16.30
2018-09-15T05:04:23.600Z,16.30
2018-09-15T05:05:27.759Z,16.30
2018-09-15T05:06:31.944Z,16.30
2018-09-15T05:07:36.657Z,16.20
2018-09-15T05:08:40.782Z,16.30
2018-09-15T05:09:45.014Z,16.20
2018-09-15T05:10:49.349Z,16.20
2018-09-15T05:11:53.737Z,16.20
2018-09-15T05:12:58.117Z,16.20
2018-09-15T05:14:03.443Z,16.20
2018-09-15T05:15:07.679Z,16.20
2018-09-15T05:16:11.814Z,16.20
2018-09-15T05:17:16.106Z,16.20
2018-09-15T05:18:20.496Z,16.10
2018-09-15T05:19:25.073Z,16.10
2018-09-15T05:20:29.667Z,16.00
2018-09-15T05:21:34.236Z,16.00
2018-09-15T05:22:38.562Z,16.00
2018-09-15T05:23:42.846Z,16.00
2018-09-15T05:24:47.164Z,16.00
2018-09-15T05:25:51.588Z,16.00
2018-09-15T05:26:55.775Z,16.00
2018-09-15T05:27:59.954Z,15.90
2018-09-15T05:29:04.186Z,16.00
2018-09-15T05:30:08.816Z,16.00
2018-09-15T05:31:13.293Z,16.00
2018-09-15T05:32:17.599Z,16.00
2018-09-15T05:33:21.820Z,16.10
2018-09-15T05:34:26.053Z,16.10
2018-09-15T05:35:30.304Z,16.10
2018-09-15T05:36:34.896Z,16.00
2018-09-15T05:37:39.089Z,16.00
2018-09-15T05:38:43.386Z,15.90
2018-09-15T05:39:47.765Z,16.00
2018-09-15T05:40:51.894Z,16.00
2018-09-15T05:41:56.078Z,16.00
2018-09-15T05:43:00.333Z,16.00
2018-09-15T05:44:04.657Z,16.00
2018-09-15T05:45:08.999Z,16.00
2018-09-15T05:46:13.270Z,16.00
2018-09-15T05:47:17.481Z,16.00
2018-09-15T05:48:21.811Z,16.10
2018-09-15T05:49:25.908Z,16.10
2018-09-15T05:50:30.092Z,16.10
2018-09-15T05:51:34.506Z,16.10
2018-09-15T05:52:39.105Z,16.10
2018-09-15T05:53:43.756Z,16.20
2018-09-15T05:54:47.940Z,16.20
2018-09-15T05:55:52.194Z,16.20
2018-09-15T05:56:56.436Z,16.20
2018-09-15T05:58:00.617Z,16.30
2018-09-15T05:59:05.042Z,16.30
2018-09-15T06:00:09.255Z,16.30
2018-09-15T06:01:13.636Z,16.30
2018-09-15T06:02:18.214Z,16.30
2018-09-15T06:03:22.396Z,16.30
2018-09-15T06:04:26.719Z,16.20
2018-09-15T06:05:31.153Z,16.20
2018-09-15T06:06:35.302Z,16.20
2018-09-15T06:07:39.669Z,16.20
2018-09-15T06:08:44.018Z,16.20
2018-09-15T06:09:48.353Z,16.20
2018-09-15T06:10:52.722Z,16.20
2018-09-15T06:11:56.950Z,16.20
2018-09-15T06:13:01.234Z,16.20
2018-09-15T06:14:05.704Z,16.30
2018-09-15T06:15:10.028Z,16.30
2018-09-15T06:16:14.465Z,16.30
2018-09-15T06:17:18.665Z,16.30
2018-09-15T06:18:22.745Z,16.30
2018-09-15T06:19:28.000Z,16.40
2018-09-15T06:20:32.336Z,16.40
2018-09-15T06:21:36.592Z,16.30
2018-09-15T06:22:40.917Z,16.40
2018-09-15T06:23:45.241Z,16.50
2018-09-15T06:24:49.320Z,16.60
2018-09-15T06:25:53.846Z,16.60
2018-09-15T06:26:58.258Z,16.60
2018-09-15T06:28:02.738Z,16.60
2018-09-15T06:29:06.997Z,16.50
2018-09-15T06:30:11.491Z,16.60
2018-09-15T06:31:15.937Z,16.50
2018-09-15T06:32:20.243Z,16.60
2018-09-15T06:33:24.563Z,16.60
2018-09-15T06:34:28.971Z,16.60
2018-09-15T06:35:33.202Z,16.70
2018-09-15T06:36:37.592Z,16.70
2018-09-15T06:37:42.024Z,16.70
2018-09-15T06:38:46.474Z,16.70
2018-09-15T06:39:50.661Z,16.70
2018-09-15T06:40:55.060Z,16.80
2018-09-15T06:41:59.457Z,16.80
2018-09-15T06:43:03.742Z,16.90
2018-09-15T06:44:08.186Z,16.90
2018-09-15T06:45:12.511Z,16.90
2018-09-15T06:46:17.071Z,16.80
2018-09-15T06:47:21.317Z,16.70
2018-09-15T06:48:25.532Z,16.60
2018-09-15T06:49:29.862Z,16.60
2018-09-15T06:50:34.024Z,16.60
2018-09-15T06:51:38.623Z,16.60
2018-09-15T06:52:42.937Z,16.50
2018-09-15T06:53:47.073Z,16.50
2018-09-15T06:54:51.262Z,16.50
2018-09-15T06:55:55.496Z,16.50
2018-09-15T06:56:59.777Z,16.50
2018-09-15T06:58:04.039Z,16.50
2018-09-15T06:59:08.379Z,16.50
2018-09-15T07:00:12.831Z,16.50
2018-09-15T07:01:17.034Z,16.50
2018-09-15T07:02:21.401Z,16.60
2018-09-15T07:03:25.598Z,16.70
2018-09-15T07:04:29.942Z,16.80
2018-09-15T07:05:34.270Z,16.80
2018-09-15T07:06:38.427Z,16.80
2018-09-15T07:07:42.744Z,16.80
2018-09-15T07:08:46.871Z,16.80
2018-09-15T07:09:50.906Z,16.80
2018-09-15T07:10:55.041Z,16.80
2018-09-15T07:11:59.260Z,16.90
2018-09-15T07:13:03.573Z,16.80
2018-09-15T07:14:08.407Z,16.90
2018-09-15T07:15:12.779Z,16.90
2018-09-15T07:16:16.890Z,17.00
2018-09-15T07:17:21.232Z,17.00
2018-09-15T07:18:25.373Z,17.10
2018-09-15T07:19:29.907Z,17.10
2018-09-15T07:20:34.279Z,17.10
2018-09-15T07:21:38.814Z,17.00
2018-09-15T07:22:42.966Z,17.00
2018-09-15T07:23:47.354Z,17.00
2018-09-15T07:24:51.504Z,17.00
2018-09-15T07:25:55.892Z,17.10
2018-09-15T07:27:00.224Z,17.00
2018-09-15T07:28:04.664Z,17.00
2018-09-15T07:29:08.814Z,17.00
2018-09-15T07:31:14.457Z,16.90
2018-09-15T07:32:19.148Z,16.90
2018-09-15T07:33:23.353Z,17.00
2018-09-15T07:34:27.689Z,16.90
2018-09-15T07:35:32.005Z,16.90
2018-09-15T07:36:36.133Z,16.90
2018-09-15T07:37:40.300Z,17.00
2018-09-15T07:38:44.622Z,17.00
2018-09-15T07:39:48.865Z,17.00
2018-09-15T07:40:53.101Z,17.00
2018-09-15T07:41:57.345Z,17.00
2018-09-15T07:43:01.726Z,16.90
2018-09-15T07:44:06.011Z,17.00
2018-09-15T07:45:10.376Z,16.90
2018-09-15T07:46:14.945Z,16.90
2018-09-15T07:47:19.099Z,16.80
2018-09-15T07:48:23.327Z,16.90
2018-09-15T07:49:27.624Z,16.90
2018-09-15T07:50:31.778Z,16.90
2018-09-15T07:51:36.083Z,17.00
2018-09-15T07:52:40.419Z,17.00
2018-09-15T07:53:45.055Z,17.00
2018-09-15T07:54:49.370Z,17.10
2018-09-15T07:55:53.880Z,17.10
2018-09-15T07:56:58.718Z,17.00
2018-09-15T07:58:03.029Z,17.00
2018-09-15T07:59:07.337Z,17.00
2018-09-15T08:00:11.595Z,16.90
2018-09-15T08:01:15.871Z,17.00
2018-09-15T08:02:22.764Z,17.00
2018-09-15T08:03:26.950Z,17.00
2018-09-15T08:04:31.210Z,17.10
2018-09-15T08:05:35.943Z,17.10
2018-09-15T08:06:40.531Z,17.10
2018-09-15T08:07:45.309Z,17.10
2018-09-15T08:08:49.400Z,17.00
2018-09-15T08:09:53.642Z,17.00
2018-09-15T08:10:57.974Z,17.00
2018-09-15T08:12:02.269Z,17.00
2018-09-15T08:13:06.598Z,17.00
2018-09-15T08:14:10.691Z,17.00
2018-09-15T08:15:15.055Z,17.00
2018-09-15T08:16:19.229Z,17.10
2018-09-15T08:17:23.495Z,17.10
2018-09-15T08:18:27.812Z,17.10
2018-09-15T08:19:31.954Z,17.10
2018-09-15T08:20:36.243Z,17.10
2018-09-15T08:21:40.529Z,17.10
2018-09-15T08:22:44.795Z,17.10
2018-09-15T08:23:49.008Z,17.10
2018-09-15T08:24:53.284Z,17.10
2018-09-15T08:25:57.900Z,17.00
2018-09-15T08:27:02.444Z,17.00
2018-09-15T08:28:06.817Z,17.00
2018-09-15T08:29:11.209Z,17.00
2018-09-15T08:30:15.671Z,17.00
2018-09-15T08:31:20.079Z,17.00
2018-09-15T08:32:24.200Z,17.00
2018-09-15T08:33:28.440Z,17.00
2018-09-15T08:34:32.849Z,17.00
2018-09-15T08:35:37.196Z,17.00
2018-09-15T08:36:41.454Z,17.00
2018-09-15T08:37:45.789Z,17.00
2018-09-15T08:38:49.901Z,17.00
2018-09-15T08:39:54.341Z,17.00
2018-09-15T08:40:59.060Z,17.00
2018-09-15T08:42:03.347Z,17.00
2018-09-15T08:43:07.550Z,17.10
2018-09-15T08:44:11.757Z,17.10
2018-09-15T08:45:16.692Z,17.10
2018-09-15T08:46:21.107Z,17.10
2018-09-15T08:47:25.439Z,17.20
2018-09-15T08:48:30.151Z,17.20
2018-09-15T08:49:34.521Z,17.20
2018-09-15T08:50:39.242Z,17.20
2018-09-15T08:51:43.383Z,17.10
2018-09-15T08:52:47.471Z,17.10
2018-09-15T08:53:52.258Z,17.20
2018-09-15T08:54:56.834Z,17.20
2018-09-15T08:56:01.047Z,17.30
2018-09-15T08:57:05.388Z,17.20
2018-09-15T08:58:09.647Z,17.30
2018-09-15T08:59:13.829Z,17.30
2018-09-15T09:00:18.234Z,17.30
2018-09-15T09:01:22.641Z,17.30
2018-09-15T09:02:26.759Z,17.40
2018-09-15T09:03:31.255Z,17.50
2018-09-15T09:04:35.633Z,17.60
2018-09-15T09:05:39.780Z,17.60
2018-09-15T09:06:43.956Z,17.60
2018-09-15T09:07:48.397Z,17.70
2018-09-15T09:08:52.981Z,17.60
2018-09-15T09:09:57.217Z,17.60
2018-09-15T09:11:01.358Z,17.70
2018-09-15T09:12:05.722Z,17.70
2018-09-15T09:13:09.947Z,17.70
2018-09-15T09:14:14.347Z,17.80
2018-09-15T09:15:19.023Z,17.80
2018-09-15T09:16:23.530Z,17.80
2018-09-15T09:17:28.496Z,17.90
2018-09-15T09:18:32.827Z,17.90
2018-09-15T09:19:37.272Z,18.00
2018-09-15T09:20:41.509Z,18.00
2018-09-15T09:21:45.788Z,18.10
2018-09-15T09:22:50.126Z,18.10
2018-09-15T09:23:54.380Z,18.20
2018-09-15T09:24:58.862Z,18.30
2018-09-15T09:26:03.116Z,18.50
2018-09-15T09:27:07.389Z,18.50
2018-09-15T09:28:11.910Z,18.40
2018-09-15T09:29:16.148Z,18.50
2018-09-15T09:30:20.764Z,18.50
2018-09-15T09:31:25.187Z,18.50
2018-09-15T09:32:29.572Z,18.60
2018-09-15T09:33:33.750Z,18.60
2018-09-15T09:34:38.038Z,18.70
2018-09-15T09:35:42.605Z,18.50
2018-09-15T09:36:47.049Z,18.50
2018-09-15T09:37:51.332Z,18.30
2018-09-15T09:38:55.720Z,18.30
2018-09-15T09:39:59.898Z,18.30
2018-09-15T09:41:04.440Z,18.30
2018-09-15T09:42:09.176Z,18.30
2018-09-15T09:43:13.425Z,18.30
2018-09-15T09:44:17.776Z,18.30
2018-09-15T09:45:22.114Z,18.30
2018-09-15T09:46:26.602Z,18.40
2018-09-15T09:47:31.188Z,18.50
2018-09-15T09:48:35.294Z,18.50
2018-09-15T09:49:39.637Z,18.50
2018-09-15T09:50:44.987Z,18.60
2018-09-15T09:51:49.160Z,18.70
2018-09-15T09:52:53.586Z,18.80
2018-09-15T09:53:57.888Z,18.80
2018-09-15T09:55:02.063Z,18.70
2018-09-15T09:56:06.247Z,18.80
2018-09-15T09:57:10.767Z,18.80
2018-09-15T09:58:15.102Z,18.80
2018-09-15T09:59:19.539Z,18.80
2018-09-15T10:00:29.190Z,18.90
2018-09-15T10:02:37.522Z,19.00
2018-09-15T10:03:41.655Z,19.10
2018-09-15T10:04:46.014Z,19.20
2018-09-15T10:05:50.380Z,19.30
2018-09-15T10:06:54.704Z,19.30
2018-09-15T10:07:59.004Z,19.40
2018-09-15T10:09:03.636Z,19.50
2018-09-15T10:10:07.846Z,19.60
2018-09-15T10:11:12.147Z,19.70
2018-09-15T10:12:16.982Z,19.80
2018-09-15T10:13:21.334Z,19.80
2018-09-15T10:14:25.677Z,19.80
2018-09-15T10:15:30.079Z,19.80
2018-09-15T10:16:34.211Z,19.80
2018-09-15T10:17:38.373Z,19.80
2018-09-15T10:18:42.643Z,19.70
2018-09-15T10:19:46.761Z,19.60
2018-09-15T10:20:51.089Z,19.60
2018-09-15T10:21:55.449Z,19.50
2018-09-15T10:22:59.944Z,19.50
2018-09-15T10:24:04.186Z,19.40
2018-09-15T10:25:08.482Z,19.30
2018-09-15T10:26:12.975Z,19.20
2018-09-15T10:27:17.295Z,19.10
2018-09-15T10:28:21.532Z,19.00
2018-09-15T10:29:26.040Z,19.00
2018-09-15T10:30:30.204Z,19.00
2018-09-15T10:31:34.490Z,19.00
2018-09-15T10:32:38.851Z,19.00
2018-09-15T10:33:43.315Z,19.00
2018-09-15T10:34:47.589Z,19.00
2018-09-15T10:35:51.866Z,18.90
2018-09-15T10:36:56.210Z,18.80
2018-09-15T10:38:00.769Z,18.80
2018-09-15T10:39:07.459Z,18.90
2018-09-15T10:40:11.921Z,18.90
2018-09-15T10:41:16.150Z,18.90
2018-09-15T10:42:20.560Z,19.00
2018-09-15T10:43:24.871Z,19.10
2018-09-15T10:44:29.189Z,19.10
2018-09-15T10:45:33.719Z,19.20
2018-09-15T10:46:37.882Z,19.30
2018-09-15T10:47:42.112Z,19.30
2018-09-15T10:48:46.326Z,19.40
2018-09-15T10:49:50.530Z,19.50
2018-09-15T10:50:54.785Z,19.60
2018-09-15T10:51:59.194Z,19.70
2018-09-15T10:53:03.350Z,19.70
2018-09-15T10:54:07.674Z,19.70
2018-09-15T10:55:11.863Z,19.70
2018-09-15T10:56:16.207Z,19.70
2018-09-15T10:57:20.325Z,19.70
2018-09-15T10:58:24.770Z,19.70
2018-09-15T10:59:28.970Z,19.60
2018-09-15T11:00:33.215Z,19.60
2018-09-15T11:01:37.409Z,19.60
2018-09-15T11:02:41.608Z,19.60
2018-09-15T11:03:45.888Z,19.60
2018-09-15T11:04:50.129Z,19.60
2018-09-15T11:05:54.769Z,19.50
2018-09-15T11:06:58.985Z,19.50
2018-09-15T11:08:03.585Z,19.50
2018-09-15T11:09:09.380Z,19.50
2018-09-15T11:10:13.980Z,19.60
2018-09-15T11:11:18.235Z,19.70
2018-09-15T11:12:22.523Z,19.70
2018-09-15T11:13:27.005Z,19.80
2018-09-15T11:14:31.596Z,19.80
2018-09-15T11:15:36.003Z,19.90
2018-09-15T11:16:40.274Z,19.80
2018-09-15T11:17:44.698Z,19.90
2018-09-15T11:18:48.919Z,19.90
2018-09-15T11:19:53.232Z,20.00
2018-09-15T11:20:57.472Z,20.00
2018-09-15T11:22:01.665Z,20.10
2018-09-15T11:23:05.946Z,20.10
2018-09-15T11:24:10.166Z,20.20
2018-09-15T11:25:14.339Z,20.20
2018-09-15T11:26:18.510Z,20.20
2018-09-15T11:27:22.606Z,20.10
2018-09-15T11:28:26.795Z,20.10
2018-09-15T11:29:31.120Z,20.10
2018-09-15T11:30:35.479Z,20.10
2018-09-15T11:31:39.639Z,20.10
2018-09-15T11:32:43.851Z,20.10
2018-09-15T11:33:48.129Z,20.10
2018-09-15T11:34:52.518Z,20.10
2018-09-15T11:35:56.672Z,20.00
2018-09-15T11:37:01.344Z,19.90
2018-09-15T11:38:05.903Z,19.90
2018-09-15T11:39:11.858Z,19.90
2018-09-15T11:40:16.430Z,20.00
2018-09-15T11:41:20.936Z,20.00
2018-09-15T11:42:24.988Z,20.00
2018-09-15T11:43:29.131Z,20.00
2018-09-15T11:44:33.407Z,20.00
2018-09-15T11:45:38.154Z,20.00
2018-09-15T11:46:42.413Z,20.00
2018-09-15T11:47:46.594Z,20.00
2018-09-15T11:48:50.788Z,20.00
2018-09-15T11:49:55.268Z,20.00
2018-09-15T11:50:59.410Z,20.00
2018-09-15T11:52:03.702Z,19.90
2018-09-15T11:53:08.007Z,19.90
2018-09-15T11:54:12.271Z,19.90
2018-09-15T11:55:16.941Z,19.90
2018-09-15T11:56:21.348Z,20.00
2018-09-15T11:57:25.492Z,20.00
2018-09-15T11:58:29.839Z,20.10
2018-09-15T11:59:34.138Z,20.10
2018-09-15T12:00:40.333Z,20.10
2018-09-15T12:01:44.654Z,20.30
2018-09-15T12:02:49.207Z,20.30
2018-09-15T12:03:53.650Z,20.40
2018-09-15T12:04:58.431Z,20.30
2018-09-15T12:06:02.569Z,20.20
2018-09-15T12:07:07.311Z,20.20
2018-09-15T12:08:11.763Z,20.10
2018-09-15T12:09:15.875Z,19.90
2018-09-15T12:10:20.070Z,19.80
2018-09-15T12:11:24.374Z,19.80
2018-09-15T12:12:28.613Z,19.80
2018-09-15T12:13:32.932Z,19.90
2018-09-15T12:14:37.252Z,19.90
2018-09-15T12:15:42.470Z,20.00
2018-09-15T12:16:46.913Z,20.10
2018-09-15T12:17:51.077Z,20.30
2018-09-15T12:18:55.121Z,20.40
2018-09-15T12:19:59.298Z,20.50
2018-09-15T12:21:03.790Z,20.50
2018-09-15T12:22:08.022Z,20.70
2018-09-15T12:23:12.222Z,20.80
2018-09-15T12:24:16.303Z,20.80
2018-09-15T12:25:20.578Z,20.90
2018-09-15T12:26:24.872Z,21.20
2018-09-15T12:27:29.382Z,21.20
2018-09-15T12:28:33.605Z,21.20
2018-09-15T12:29:38.239Z,21.20
2018-09-15T12:30:42.474Z,21.20
2018-09-15T12:31:46.726Z,21.20
2018-09-15T12:32:51.450Z,21.10
2018-09-15T12:33:56.034Z,21.10
2018-09-15T12:35:00.139Z,21.00
2018-09-15T12:36:04.411Z,21.00
2018-09-15T12:37:08.821Z,21.10
2018-09-15T12:38:13.146Z,21.20
2018-09-15T12:39:17.358Z,21.20
2018-09-15T12:40:21.689Z,21.30
2018-09-15T12:41:26.032Z,21.40
2018-09-15T12:42:30.480Z,21.40
2018-09-15T12:43:34.629Z,21.40
2018-09-15T12:44:38.987Z,21.40
2018-09-15T12:45:43.250Z,21.10
2018-09-15T12:46:47.489Z,20.90
2018-09-15T12:47:51.560Z,20.80
2018-09-15T12:48:56.120Z,20.70
2018-09-15T12:50:00.574Z,20.60
2018-09-15T12:51:04.860Z,20.50
2018-09-15T12:52:09.097Z,20.40
2018-09-15T12:53:13.529Z,20.40
2018-09-15T12:54:17.973Z,20.30
2018-09-15T12:55:22.281Z,20.20
2018-09-15T12:56:26.492Z,20.30
2018-09-15T12:57:30.746Z,20.30
2018-09-15T12:58:34.891Z,20.20
2018-09-15T12:59:39.039Z,20.20
2018-09-15T13:00:43.077Z,20.20
2018-09-15T13:01:47.384Z,20.20
2018-09-15T13:02:51.602Z,20.30
2018-09-15T13:03:55.828Z,20.30
2018-09-15T13:05:00.132Z,20.40
2018-09-15T13:06:04.590Z,20.50
2018-09-15T13:07:09.160Z,20.60
2018-09-15T13:08:13.413Z,20.60
2018-09-15T13:09:17.660Z,20.60
2018-09-15T13:10:22.336Z,20.70
2018-09-15T13:11:26.539Z,20.90
2018-09-15T13:12:31.158Z,21.00
2018-09-15T13:13:35.484Z,21.10
2018-09-15T13:14:39.951Z,21.30
2018-09-15T13:15:44.311Z,21.30
2018-09-15T13:16:48.800Z,21.20
2018-09-15T13:17:53.035Z,21.20
2018-09-15T13:18:57.424Z,21.10
2018-09-15T13:20:01.908Z,21.10
2018-09-15T13:21:06.234Z,21.20
2018-09-15T13:22:10.595Z,21.50
2018-09-15T13:23:14.937Z,21.70
2018-09-15T13:24:19.274Z,22.00
2018-09-15T13:25:23.497Z,22.30
2018-09-15T13:26:28.073Z,22.40
2018-09-15T13:27:32.436Z,22.50
2018-09-15T13:28:36.804Z,22.50
2018-09-15T13:29:41.067Z,22.60
2018-09-15T13:30:45.520Z,22.30
2018-09-15T13:31:49.697Z,22.20
2018-09-15T13:32:54.009Z,22.20
2018-09-15T13:33:58.327Z,22.10
2018-09-15T13:35:02.607Z,22.20
2018-09-15T13:36:07.083Z,22.30
2018-09-15T13:37:11.317Z,22.50
2018-09-15T13:38:16.006Z,22.50
2018-09-15T13:39:20.649Z,22.30
2018-09-15T13:40:25.120Z,22.20
2018-09-15T13:41:29.399Z,22.00
2018-09-15T13:42:33.794Z,22.00
2018-09-15T13:43:38.118Z,21.80
2018-09-15T13:44:42.832Z,21.60
2018-09-15T13:45:47.171Z,21.40
2018-09-15T13:46:51.381Z,21.40
2018-09-15T13:47:55.678Z,21.40
2018-09-15T13:48:59.865Z,21.30
2018-09-15T13:50:04.173Z,21.40
2018-09-15T13:51:08.549Z,21.50